createdAt,value
2019-05-30T00:01:29.137Z,99.90
2019-05-30T00:03:58.884Z,99.90
2019-05-30T00:06:28.138Z,99.90
2019-05-30T00:08:56.916Z,99.90
2019-05-30T00:11:25.818Z,99.90
2019-05-30T00:13:54.866Z,99.90
2019-05-30T00:16:23.953Z,99.90
2019-05-30T00:18:52.788Z,99.90
2019-05-30T00:21:21.869Z,99.90
2019-05-30T00:23:51.279Z,99.90
2019-05-30T00:26:20.077Z,99.90
2019-05-30T00:28:49.183Z,99.90
2019-05-30T00:31:18.354Z,99.90
2019-05-30T00:33:47.178Z,99.90
2019-05-30T00:36:16.497Z,99.90
2019-05-30T00:38:45.696Z,99.90
2019-05-30T00:41:14.493Z,99.90
2019-05-30T00:43:43.410Z,99.90
2019-05-30T00:46:12.258Z,99.90
2019-05-30T00:48:41.181Z,99.90
2019-05-30T00:51:10.202Z,99.90
2019-05-30T00:53:39.276Z,99.90
2019-05-30T00:56:08.160Z,99.90
2019-05-30T00:58:37.407Z,99.90
2019-05-30T01:01:07.142Z,99.90
2019-05-30T01:03:36.271Z,99.90
2019-05-30T01:06:05.145Z,99.90
2019-05-30T01:08:33.956Z,99.90
2019-05-30T01:11:03.242Z,99.90
2019-05-30T01:13:32.256Z,99.90
2019-05-30T01:16:01.293Z,99.90
2019-05-30T01:18:30.442Z,99.90
2019-05-30T01:20:59.312Z,99.90
2019-05-30T01:23:28.306Z,99.90
2019-05-30T01:25:57.348Z,99.90
2019-05-30T01:28:26.386Z,99.90
2019-05-30T01:31:00.226Z,99.90
2019-05-30T01:33:25.910Z,99.90
2019-05-30T01:35:54.722Z,99.90
2019-05-30T01:38:23.527Z,99.90
2019-05-30T01:40:53.487Z,99.90
2019-05-30T01:43:22.374Z,99.90
2019-05-30T01:45:51.509Z,99.90
2019-05-30T01:48:20.462Z,99.90
2019-05-30T01:50:49.446Z,99.90
2019-05-30T01:53:18.661Z,99.90
2019-05-30T01:55:48.880Z,99.90
2019-05-30T01:58:18.465Z,99.90
2019-05-30T02:00:47.425Z,99.90
2019-05-30T02:03:16.331Z,99.90
2019-05-30T02:05:45.180Z,99.90
2019-05-30T02:08:14.157Z,99.90
2019-05-30T02:10:43.695Z,99.90
2019-05-30T02:13:12.652Z,99.90
2019-05-30T02:15:41.473Z,99.90
2019-05-30T02:18:10.688Z,99.90
2019-05-30T02:20:39.657Z,99.90
2019-05-30T02:23:09.929Z,99.90
2019-05-30T02:25:39.442Z,99.90
2019-05-30T02:28:10.261Z,99.90
2019-05-30T02:30:39.388Z,99.90
2019-05-30T02:33:10.532Z,99.90
2019-05-30T02:35:39.315Z,99.90
2019-05-30T02:38:11.040Z,99.90
2019-05-30T02:40:39.464Z,99.90
2019-05-30T02:43:10.397Z,99.90
2019-05-30T02:45:39.081Z,99.90
2019-05-30T02:48:09.705Z,99.90
2019-05-30T02:50:38.835Z,99.90
2019-05-30T02:53:10.370Z,99.90
2019-05-30T02:55:39.564Z,99.90
2019-05-30T02:58:10.543Z,99.90
2019-05-30T03:00:39.699Z,99.90
2019-05-30T03:03:09.797Z,99.90
2019-05-30T03:05:39.273Z,99.90
2019-05-30T03:08:11.431Z,99.90
2019-05-30T03:10:39.764Z,99.90
2019-05-30T03:13:10.623Z,99.90
2019-05-30T03:15:39.418Z,99.90
2019-05-30T03:18:10.358Z,99.90
2019-05-30T03:20:39.368Z,99.90
2019-05-30T03:23:09.938Z,99.90
2019-05-30T03:25:39.807Z,99.90
2019-05-30T03:28:09.492Z,99.90
2019-05-30T03:30:39.825Z,99.90
2019-05-30T03:33:29.246Z,99.90
2019-05-30T03:35:43.163Z,99.90
2019-05-30T03:38:12.793Z,99.90
2019-05-30T03:40:41.054Z,99.90
2019-05-30T03:43:11.634Z,99.90
2019-05-30T03:45:42.679Z,99.90
2019-05-30T03:48:16.285Z,99.90
2019-05-30T03:50:49.077Z,99.90
2019-05-30T03:53:18.481Z,99.90
2019-05-30T03:55:51.988Z,99.90
2019-05-30T03:58:28.275Z,99.90
2019-05-30T04:01:00.986Z,99.90
2019-05-30T04:03:54.467Z,99.90
2019-05-30T04:06:28.622Z,99.90
2019-05-30T04:09:02.074Z,99.90
2019-05-30T04:11:41.989Z,99.90
2019-05-30T04:14:15.759Z,99.90
2019-05-30T04:16:44.798Z,99.90
2019-05-30T04:19:15.488Z,99.90
2019-05-30T04:21:44.166Z,99.90
2019-05-30T04:24:14.543Z,99.90
2019-05-30T04:26:44.028Z,99.90
2019-05-30T04:29:14.371Z,99.90
2019-05-30T04:31:43.406Z,99.90
2019-05-30T04:34:14.968Z,99.90
2019-05-30T04:36:44.631Z,99.90
2019-05-30T04:39:15.150Z,99.90
2019-05-30T04:41:44.238Z,99.90
2019-05-30T04:44:14.526Z,99.90
2019-05-30T04:46:43.993Z,99.90
2019-05-30T04:49:14.445Z,99.90
2019-05-30T04:51:43.704Z,99.90
2019-05-30T04:54:13.052Z,99.90
2019-05-30T04:56:43.461Z,99.90
2019-05-30T04:59:12.971Z,99.90
2019-05-30T05:01:41.821Z,99.90
2019-05-30T05:04:11.460Z,99.90
2019-05-30T05:06:40.527Z,99.90
2019-05-30T05:09:09.393Z,99.90
2019-05-30T05:11:38.500Z,99.90
2019-05-30T05:14:08.694Z,99.90
2019-05-30T05:16:37.672Z,99.90
2019-05-30T05:19:06.540Z,99.90
2019-05-30T05:21:35.350Z,99.90
2019-05-30T05:24:04.248Z,99.90
2019-05-30T05:26:33.509Z,99.90
2019-05-30T05:29:03.418Z,99.90
2019-05-30T05:31:32.381Z,99.90
2019-05-30T05:34:01.342Z,99.90
2019-05-30T05:36:30.291Z,99.90
2019-05-30T05:38:59.139Z,99.90
2019-05-30T05:41:28.627Z,99.90
2019-05-30T05:43:57.877Z,99.90
2019-05-30T05:46:26.689Z,99.90
2019-05-30T05:48:55.594Z,99.90
2019-05-30T05:51:24.825Z,99.90
2019-05-30T05:53:53.939Z,99.90
2019-05-30T05:56:22.966Z,99.90
2019-05-30T05:58:51.883Z,99.90
2019-05-30T06:01:21.583Z,99.90
2019-05-30T06:03:51.406Z,99.90
2019-05-30T06:06:21.257Z,99.90
2019-05-30T06:08:50.169Z,99.90
2019-05-30T06:11:19.094Z,99.90
2019-05-30T06:13:48.020Z,99.90
2019-05-30T06:16:17.785Z,99.90
2019-05-30T06:18:46.852Z,99.90
2019-05-30T06:21:15.820Z,99.90
2019-05-30T06:23:46.013Z,99.90
2019-05-30T06:26:15.165Z,99.90
2019-05-30T06:28:44.416Z,99.90
2019-05-30T06:31:13.557Z,99.90
2019-05-30T06:33:42.446Z,99.90
2019-05-30T06:36:11.301Z,99.90
2019-05-30T06:38:41.146Z,99.90
2019-05-30T06:41:10.879Z,99.90
2019-05-30T06:43:39.746Z,99.90
2019-05-30T06:46:09.165Z,99.90
2019-05-30T06:48:38.106Z,99.90
2019-05-30T06:51:07.086Z,99.90
2019-05-30T06:53:36.708Z,99.90
2019-05-30T06:56:06.053Z,99.90
2019-05-30T06:58:48.028Z,98.20
2019-05-30T07:01:05.605Z,96.80
2019-05-30T07:03:34.515Z,93.90
2019-05-30T07:06:03.811Z,92.20
2019-05-30T07:08:33.363Z,88.10
2019-05-30T07:11:02.278Z,85.20
2019-05-30T07:13:31.660Z,80.30
2019-05-30T07:16:00.809Z,79.10
2019-05-30T07:18:34.636Z,77.10
2019-05-30T07:21:01.074Z,75.90
2019-05-30T07:23:30.288Z,73.60
2019-05-30T07:25:59.361Z,69.40
2019-05-30T07:28:28.314Z,69.00
2019-05-30T07:30:57.288Z,68.70
2019-05-30T07:33:26.299Z,67.60
2019-05-30T07:35:55.193Z,65.40
2019-05-30T07:38:24.762Z,65.70
2019-05-30T07:40:53.795Z,65.30
2019-05-30T07:43:25.384Z,64.60
2019-05-30T07:48:25.948Z,63.10
2019-05-30T07:50:55.334Z,62.80
2019-05-30T07:53:24.556Z,60.60
2019-05-30T07:55:53.370Z,59.60
2019-05-30T07:58:23.839Z,58.00
2019-05-30T08:00:53.055Z,58.70
2019-05-30T08:03:21.943Z,57.40
2019-05-30T08:05:50.875Z,57.10
2019-05-30T08:08:20.326Z,57.60
2019-05-30T08:10:49.509Z,58.30
2019-05-30T08:13:18.570Z,58.40
2019-05-30T08:15:47.665Z,56.50
2019-05-30T08:18:17.321Z,56.90
2019-05-30T08:20:46.256Z,53.80
2019-05-30T08:23:15.192Z,53.20
2019-05-30T08:25:44.117Z,54.70
2019-05-30T08:28:12.941Z,53.70
2019-05-30T08:30:41.977Z,53.90
2019-05-30T08:33:11.093Z,54.80
2019-05-30T08:35:49.145Z,53.00
2019-05-30T08:38:10.778Z,52.00
2019-05-30T08:40:39.662Z,52.10
2019-05-30T08:43:08.566Z,51.00
2019-05-30T08:45:38.033Z,50.90
2019-05-30T08:48:07.434Z,49.40
2019-05-30T08:50:40.846Z,50.30
2019-05-30T08:53:07.348Z,50.10
2019-05-30T08:55:36.510Z,50.00
2019-05-30T08:58:05.998Z,48.90
2019-05-30T09:00:35.422Z,48.00
2019-05-30T09:03:04.601Z,47.60
2019-05-30T09:05:33.793Z,48.70
2019-05-30T09:08:02.752Z,47.00
2019-05-30T09:10:32.709Z,46.40
2019-05-30T09:13:01.611Z,46.70
2019-05-30T09:15:30.515Z,45.20
2019-05-30T09:17:59.406Z,44.40
2019-05-30T09:20:30.900Z,45.20
2019-05-30T09:22:58.962Z,44.20
2019-05-30T09:25:28.337Z,44.30
2019-05-30T09:27:57.466Z,44.60
2019-05-30T09:30:26.402Z,44.00
2019-05-30T09:32:55.291Z,43.40
2019-05-30T09:35:24.413Z,40.30
2019-05-30T09:37:53.356Z,41.40
2019-05-30T09:40:22.592Z,40.90
2019-05-30T09:42:51.834Z,40.50
2019-05-30T09:45:22.518Z,39.80
2019-05-30T09:47:51.750Z,38.90
2019-05-30T09:50:21.426Z,39.90
2019-05-30T09:52:51.350Z,38.30
2019-05-30T09:55:22.501Z,36.00
2019-05-30T09:57:51.821Z,37.00
2019-05-30T10:00:21.225Z,37.70
2019-05-30T10:02:50.544Z,34.70
2019-05-30T10:05:24.095Z,35.50
2019-05-30T10:07:51.083Z,36.00
2019-05-30T10:10:20.403Z,35.60
2019-05-30T10:12:50.346Z,36.80
2019-05-30T10:15:20.113Z,36.50
2019-05-30T10:17:51.800Z,36.90
2019-05-30T10:20:20.420Z,38.80
2019-05-30T10:22:51.707Z,40.20
2019-05-30T10:25:20.261Z,37.80
2019-05-30T10:27:50.907Z,39.50
2019-05-30T10:30:20.349Z,38.70
2019-05-30T10:32:50.287Z,40.10
2019-05-30T10:35:20.273Z,36.90
2019-05-30T10:37:50.745Z,38.70
2019-05-30T10:40:39.162Z,35.40
2019-05-30T10:43:08.616Z,37.80
2019-05-30T10:45:38.722Z,37.20
2019-05-30T10:48:08.337Z,35.70
2019-05-30T10:50:37.868Z,34.90
2019-05-30T10:53:06.764Z,34.30
2019-05-30T10:55:35.697Z,36.80
2019-05-30T10:58:04.788Z,33.80
2019-05-30T11:00:58.984Z,33.00
2019-05-30T11:03:28.532Z,32.60
2019-05-30T11:06:10.254Z,31.50
2019-05-30T11:08:42.236Z,31.80
2019-05-30T11:11:11.682Z,31.20
2019-05-30T11:13:40.609Z,31.50
2019-05-30T11:16:09.455Z,31.40
2019-05-30T11:18:38.631Z,29.50
2019-05-30T11:21:07.545Z,30.10
2019-05-30T11:23:36.435Z,30.40
2019-05-30T11:26:05.950Z,31.60
2019-05-30T11:28:34.814Z,30.90
2019-05-30T11:33:34.641Z,29.70
2019-05-30T11:36:03.571Z,32.70
2019-05-30T11:38:32.388Z,33.40
2019-05-30T11:41:01.229Z,32.10
2019-05-30T11:43:30.474Z,31.60
2019-05-30T11:46:00.001Z,32.10
2019-05-30T11:48:28.885Z,32.30
2019-05-30T11:50:58.012Z,31.40
2019-05-30T11:53:30.587Z,30.80
2019-05-30T11:56:00.466Z,30.00
2019-05-30T11:58:29.380Z,32.40
2019-05-30T12:00:58.733Z,31.10
2019-05-30T12:03:29.593Z,30.40
2019-05-30T12:05:58.705Z,33.30
2019-05-30T12:08:27.555Z,31.30
2019-05-30T12:10:57.180Z,32.10
2019-05-30T12:13:26.236Z,31.20
2019-05-30T12:15:55.423Z,30.90
2019-05-30T12:18:24.306Z,32.20
2019-05-30T12:20:53.620Z,31.80
2019-05-30T12:23:22.490Z,31.80
2019-05-30T12:25:52.022Z,32.10
2019-05-30T12:28:20.888Z,33.20
2019-05-30T12:30:56.731Z,31.70
2019-05-30T12:33:20.457Z,29.50
2019-05-30T12:35:49.421Z,29.40
2019-05-30T12:38:18.342Z,31.20
2019-05-30T12:40:47.161Z,33.60
2019-05-30T12:43:15.955Z,34.00
2019-05-30T12:45:45.172Z,31.50
2019-05-30T12:48:13.953Z,30.80
2019-05-30T12:50:42.891Z,32.90
2019-05-30T12:53:11.827Z,28.60
2019-05-30T12:55:40.652Z,28.90
2019-05-30T12:58:09.567Z,30.20
2019-05-30T13:00:39.767Z,33.00
2019-05-30T13:03:08.659Z,29.50
2019-05-30T13:05:37.651Z,30.00
2019-05-30T13:08:20.658Z,31.30
2019-05-30T13:10:37.849Z,31.40
2019-05-30T13:13:06.739Z,31.60
2019-05-30T13:15:35.787Z,32.90
2019-05-30T13:18:04.723Z,35.20
2019-05-30T13:20:33.712Z,37.20
2019-05-30T13:23:03.025Z,35.90
2019-05-30T13:25:31.927Z,34.50
2019-05-30T13:28:04.802Z,35.00
2019-05-30T13:30:31.912Z,33.40
2019-05-30T13:33:01.067Z,32.40
2019-05-30T13:35:30.149Z,30.50
2019-05-30T13:37:59.169Z,29.00
2019-05-30T13:40:28.220Z,29.40
2019-05-30T13:42:57.790Z,26.90
2019-05-30T13:45:26.991Z,26.60
2019-05-30T13:47:55.932Z,26.40
2019-05-30T13:50:25.853Z,27.90
2019-05-30T13:52:55.149Z,31.30
2019-05-30T13:55:26.182Z,28.50
2019-05-30T13:57:54.995Z,28.70
2019-05-30T14:00:24.082Z,29.50
2019-05-30T14:02:52.959Z,31.70
2019-05-30T14:05:22.526Z,35.80
2019-05-30T14:07:51.393Z,33.70
2019-05-30T14:10:20.380Z,30.50
2019-05-30T14:12:49.306Z,32.50
2019-05-30T14:15:18.561Z,32.20
2019-05-30T14:17:47.812Z,31.60
2019-05-30T14:20:17.802Z,33.40
2019-05-30T14:22:46.822Z,35.30
2019-05-30T14:25:17.474Z,36.10
2019-05-30T14:27:46.315Z,37.70
2019-05-30T14:30:15.622Z,34.70
2019-05-30T14:32:44.494Z,31.60
2019-05-30T14:35:14.035Z,30.70
2019-05-30T14:37:43.378Z,31.70
2019-05-30T14:40:13.138Z,26.40
2019-05-30T14:42:42.188Z,26.60
2019-05-30T14:45:12.539Z,27.30
2019-05-30T14:47:41.657Z,27.60
2019-05-30T14:50:11.323Z,28.40
2019-05-30T14:52:40.354Z,29.60
2019-05-30T14:55:10.953Z,29.70
2019-05-30T14:57:40.150Z,35.40
2019-05-30T15:00:11.297Z,33.20
2019-05-30T15:02:40.308Z,33.70
2019-05-30T15:05:09.486Z,35.20
2019-05-30T15:07:39.390Z,36.20
2019-05-30T15:10:09.109Z,39.40
2019-05-30T15:12:38.773Z,39.40
2019-05-30T15:15:12.615Z,42.20
2019-05-30T15:17:40.392Z,46.50
2019-05-30T15:20:10.680Z,45.10
2019-05-30T15:22:40.624Z,44.50
2019-05-30T15:25:09.987Z,44.90
2019-05-30T15:27:40.111Z,42.80
2019-05-30T15:30:10.626Z,41.60
2019-05-30T15:32:39.708Z,40.30
2019-05-30T15:35:08.984Z,41.40
2019-05-30T15:37:40.739Z,42.40
2019-05-30T15:40:10.948Z,41.80
2019-05-30T15:42:39.948Z,40.40
2019-05-30T15:45:10.090Z,41.20
2019-05-30T15:47:39.171Z,39.70
2019-05-30T15:50:08.736Z,40.30
2019-05-30T15:52:37.797Z,40.30
2019-05-30T15:55:07.018Z,40.20
2019-05-30T15:57:36.076Z,39.50
2019-05-30T16:00:06.317Z,40.40
2019-05-30T16:02:35.237Z,38.90
2019-05-30T16:05:05.394Z,40.20
2019-05-30T16:07:34.220Z,41.40
2019-05-30T16:10:03.292Z,41.40
2019-05-30T16:12:32.223Z,41.50
2019-05-30T16:15:01.129Z,42.10
2019-05-30T16:17:29.976Z,43.20
2019-05-30T16:19:58.938Z,43.70
2019-05-30T16:22:27.743Z,42.40
2019-05-30T16:24:56.726Z,42.40
2019-05-30T16:27:26.053Z,42.40
2019-05-30T16:29:55.105Z,42.50
2019-05-30T16:32:24.321Z,44.40
2019-05-30T16:34:53.340Z,47.70
2019-05-30T16:37:22.593Z,48.10
2019-05-30T16:40:05.302Z,48.40
2019-05-30T16:42:22.633Z,49.20
2019-05-30T16:44:51.514Z,49.40
2019-05-30T16:47:20.501Z,49.40
2019-05-30T16:49:49.365Z,49.60
2019-05-30T16:52:19.249Z,49.50
2019-05-30T16:54:48.333Z,51.40
2019-05-30T16:57:18.449Z,52.10
2019-05-30T16:59:47.638Z,51.60
2019-05-30T17:02:16.882Z,52.20
2019-05-30T17:04:45.925Z,52.80
2019-05-30T17:07:15.069Z,52.70
2019-05-30T17:09:44.322Z,52.40
2019-05-30T17:12:13.293Z,53.20
2019-05-30T17:14:42.199Z,52.90
2019-05-30T17:17:11.034Z,52.60
2019-05-30T17:19:39.891Z,53.70
2019-05-30T17:22:08.829Z,53.50
2019-05-30T17:24:37.745Z,53.50
2019-05-30T17:27:06.741Z,52.50
2019-05-30T17:29:35.617Z,53.30
2019-05-30T17:32:04.595Z,56.00
2019-05-30T17:34:33.605Z,56.80
2019-05-30T17:37:02.924Z,58.20
2019-05-30T17:39:31.863Z,57.80
2019-05-30T17:42:00.804Z,60.20
2019-05-30T17:44:29.922Z,61.90
2019-05-30T17:46:59.962Z,61.30
2019-05-30T17:49:30.044Z,59.60
2019-05-30T17:51:59.072Z,59.70
2019-05-30T17:54:28.126Z,62.40
2019-05-30T17:56:57.030Z,61.90
2019-05-30T17:59:26.376Z,61.00
2019-05-30T18:01:55.317Z,60.90
2019-05-30T18:04:24.566Z,60.90
2019-05-30T18:06:53.618Z,61.20
2019-05-30T18:09:23.138Z,61.60
2019-05-30T18:11:52.492Z,64.20
2019-05-30T18:14:22.932Z,66.80
2019-05-30T18:16:52.504Z,67.80
2019-05-30T18:19:21.501Z,66.50
2019-05-30T18:21:50.893Z,66.10
2019-05-30T18:24:21.371Z,69.00
2019-05-30T18:26:50.489Z,70.00
2019-05-30T18:29:21.776Z,71.20
2019-05-30T18:31:50.757Z,71.00
2019-05-30T18:34:19.633Z,63.30
2019-05-30T18:36:49.201Z,65.10
2019-05-30T18:39:18.195Z,68.40
2019-05-30T18:41:47.039Z,70.40
2019-05-30T18:44:16.018Z,70.60
2019-05-30T18:46:44.944Z,70.40
2019-05-30T18:51:42.654Z,59.20
2019-05-30T18:54:11.798Z,60.70
2019-05-30T18:56:40.686Z,61.10
2019-05-30T18:59:09.938Z,61.40
2019-05-30T19:01:39.125Z,62.00
2019-05-30T19:04:08.245Z,62.60
2019-05-30T19:06:37.490Z,62.90
2019-05-30T19:09:07.326Z,62.50
2019-05-30T19:11:37.032Z,63.20
2019-05-30T19:14:07.370Z,63.70
2019-05-30T19:16:37.048Z,67.80
2019-05-30T19:19:06.249Z,69.60
2019-05-30T19:21:36.202Z,70.80
2019-05-30T19:24:05.564Z,74.00
2019-05-30T19:26:34.746Z,66.70
2019-05-30T19:29:03.709Z,67.40
2019-05-30T19:31:32.826Z,67.30
2019-05-30T19:34:01.671Z,68.30
2019-05-30T19:36:31.099Z,68.90
2019-05-30T19:39:00.138Z,69.00
2019-05-30T19:41:46.051Z,69.10
2019-05-30T19:44:00.134Z,70.30
2019-05-30T19:46:29.969Z,70.60
2019-05-30T19:48:58.905Z,71.60
2019-05-30T19:51:28.711Z,71.80
2019-05-30T19:53:57.725Z,73.20
2019-05-30T19:56:26.538Z,72.80
2019-05-30T19:58:55.455Z,73.80
2019-05-30T20:01:24.312Z,74.00
2019-05-30T20:03:53.089Z,74.00
2019-05-30T20:06:24.739Z,74.60
2019-05-30T20:08:55.760Z,75.30
2019-05-30T20:11:23.218Z,75.30
2019-05-30T20:13:52.045Z,76.30
2019-05-30T20:16:21.184Z,76.10
2019-05-30T20:18:50.013Z,76.80
2019-05-30T20:21:19.719Z,77.20
2019-05-30T20:23:55.303Z,77.70
2019-05-30T20:26:19.977Z,78.30
2019-05-30T20:28:48.958Z,79.00
2019-05-30T20:31:18.117Z,79.70
2019-05-30T20:33:46.958Z,79.90
2019-05-30T20:36:16.330Z,80.30
2019-05-30T20:38:45.180Z,80.80
2019-05-30T20:41:14.135Z,82.00
2019-05-30T20:43:43.112Z,82.70
2019-05-30T20:46:22.764Z,82.90
2019-05-30T20:48:44.879Z,83.40
2019-05-30T20:51:21.236Z,84.10
2019-05-30T20:53:44.335Z,84.00
2019-05-30T20:56:13.195Z,84.10
2019-05-30T20:58:42.032Z,84.60
2019-05-30T21:01:10.944Z,85.30
2019-05-30T21:03:39.830Z,85.20
2019-05-30T21:06:09.183Z,86.10
2019-05-30T21:08:39.005Z,88.10
2019-05-30T21:11:10.574Z,90.10
2019-05-30T21:13:42.237Z,91.50
2019-05-30T21:16:12.931Z,93.00
2019-05-30T21:18:46.024Z,94.60
2019-05-30T21:21:15.288Z,95.50
2019-05-30T21:23:44.425Z,96.10
2019-05-30T21:26:13.673Z,96.00
2019-05-30T21:28:43.481Z,96.20
2019-05-30T21:31:12.834Z,95.90
2019-05-30T21:33:42.077Z,95.40
2019-05-30T21:36:12.447Z,95.10
2019-05-30T21:38:42.161Z,94.90
2019-05-30T21:41:11.132Z,95.40
2019-05-30T21:43:40.418Z,96.30
2019-05-30T21:46:09.296Z,96.70
2019-05-30T21:48:38.808Z,96.80
2019-05-30T21:51:07.696Z,96.40
2019-05-30T21:53:36.506Z,96.30
2019-05-30T21:56:05.408Z,96.60
2019-05-30T21:58:34.525Z,97.20
2019-05-30T22:01:29.938Z,98.70
2019-05-30T22:03:59.135Z,99.50
2019-05-30T22:06:28.017Z,99.80
2019-05-30T22:08:56.926Z,99.80
2019-05-30T22:11:25.942Z,99.90
2019-05-30T22:13:54.981Z,99.90
2019-05-30T22:16:23.897Z,99.90
2019-05-30T22:18:52.950Z,99.90
2019-05-30T22:21:21.937Z,99.90
2019-05-30T22:23:52.507Z,99.90
2019-05-30T22:26:21.649Z,99.90
2019-05-30T22:28:50.564Z,99.90
2019-05-30T22:31:19.598Z,99.90
2019-05-30T22:33:48.792Z,99.90
2019-05-30T22:36:17.813Z,99.90
2019-05-30T22:38:46.853Z,99.90
2019-05-30T22:41:16.030Z,99.90
2019-05-30T22:43:45.928Z,99.90
2019-05-30T22:46:15.168Z,99.90
2019-05-30T22:48:44.669Z,99.90
2019-05-30T22:51:13.774Z,99.90
2019-05-30T22:53:44.835Z,99.90
2019-05-30T22:56:14.036Z,99.90
2019-05-30T22:58:42.842Z,99.90
2019-05-30T23:01:11.801Z,99.90
2019-05-30T23:03:40.874Z,99.90
2019-05-30T23:06:09.753Z,99.90
2019-05-30T23:08:38.555Z,99.90
2019-05-30T23:11:07.454Z,99.90
2019-05-30T23:13:40.590Z,99.90
2019-05-30T23:16:07.089Z,99.90
2019-05-30T23:18:35.937Z,99.90
2019-05-30T23:21:04.858Z,99.90
2019-05-30T23:23:33.729Z,99.90
2019-05-30T23:26:02.522Z,99.90
2019-05-30T23:28:31.330Z,99.90
2019-05-30T23:31:00.519Z,99.90
2019-05-30T23:33:29.402Z,99.90
2019-05-30T23:35:58.583Z,99.90
2019-05-30T23:38:27.866Z,99.90
2019-05-30T23:40:57.096Z,99.90
2019-05-30T23:43:26.337Z,99.90
2019-05-30T23:45:55.756Z,99.90
2019-05-30T23:48:24.725Z,99.90
2019-05-30T23:50:53.917Z,99.90
2019-05-30T23:53:22.817Z,99.90
2019-05-30T23:55:52.278Z,99.90
2019-05-30T23:58:21.201Z,99.90
